createdAt,value
2017-10-14T00:04:40.939Z,96837
2017-10-14T00:10:09.057Z,96831
2017-10-14T00:15:37.198Z,96837
2017-10-14T00:21:05.326Z,96831
2017-10-14T00:26:33.465Z,96827
2017-10-14T00:32:02.636Z,96827
2017-10-14T00:37:30.781Z,96822
2017-10-14T00:42:58.915Z,96824
2017-10-14T00:48:27.041Z,96813
2017-10-14T00:53:55.177Z,96816
2017-10-14T00:59:24.194Z,96806
2017-10-14T01:04:52.351Z,96795
2017-10-14T01:10:20.490Z,96797
2017-10-14T01:15:48.624Z,96785
2017-10-14T01:21:16.759Z,96790
2017-10-14T01:26:44.897Z,96791
2017-10-14T01:32:13.046Z,96776
2017-10-14T01:37:41.190Z,96773
2017-10-14T01:43:10.255Z,96769
2017-10-14T01:48:38.465Z,96769
2017-10-14T01:54:06.711Z,96771
2017-10-14T01:59:34.961Z,96767
2017-10-14T02:05:04.080Z,96783
2017-10-14T02:10:32.323Z,96791
2017-10-14T02:16:00.464Z,96797
2017-10-14T02:21:28.604Z,96791
2017-10-14T02:26:57.508Z,96796
2017-10-14T02:32:25.628Z,96791
2017-10-14T02:37:53.765Z,96793
2017-10-14T02:43:21.923Z,96795
2017-10-14T02:48:50.977Z,96788
2017-10-14T02:54:19.116Z,96793
2017-10-14T02:59:47.249Z,96784
2017-10-14T03:05:16.171Z,96782
2017-10-14T03:10:44.281Z,96785
2017-10-14T03:16:13.183Z,96785
2017-10-14T03:21:41.345Z,96788
2017-10-14T03:27:09.481Z,96794
2017-10-14T03:32:37.615Z,96786
2017-10-14T03:38:06.515Z,96789
2017-10-14T03:43:35.413Z,96791
2017-10-14T03:49:03.538Z,96789
2017-10-14T03:54:32.458Z,96791
2017-10-14T04:00:00.646Z,96790
2017-10-14T04:05:28.832Z,96799
2017-10-14T04:10:57.766Z,96802
2017-10-14T04:16:25.940Z,96803
2017-10-14T04:21:54.861Z,96795
2017-10-14T04:27:23.036Z,96802
2017-10-14T04:32:51.171Z,96808
2017-10-14T04:38:19.324Z,96812
2017-10-14T04:43:47.442Z,96817
2017-10-14T04:49:15.594Z,96812
2017-10-14T04:54:43.800Z,96817
2017-10-14T05:00:12.922Z,96817
2017-10-14T05:05:41.075Z,96815
2017-10-14T05:11:24.169Z,96815
2017-10-14T05:16:53.000Z,96815
2017-10-14T05:22:21.986Z,96817
2017-10-14T05:27:50.869Z,96824
2017-10-14T05:33:19.761Z,96822
2017-10-14T05:38:48.874Z,96828
2017-10-14T05:44:16.998Z,96828
2017-10-14T05:49:45.141Z,96835
2017-10-14T05:55:13.331Z,96846
2017-10-14T06:00:41.530Z,96837
2017-10-14T06:06:09.665Z,96845
2017-10-14T06:11:37.827Z,96840
2017-10-14T06:17:05.959Z,96848
2017-10-14T06:22:34.069Z,96847
2017-10-14T06:28:02.999Z,96852
2017-10-14T06:33:31.146Z,96854
2017-10-14T06:38:59.320Z,96866
2017-10-14T06:44:27.475Z,96872
2017-10-14T06:49:55.632Z,96862
2017-10-14T06:55:24.361Z,96867
2017-10-14T07:00:53.025Z,96864
2017-10-14T07:06:21.323Z,96869
2017-10-14T07:11:49.468Z,96874
2017-10-14T07:17:17.620Z,96879
2017-10-14T07:22:45.757Z,96885
2017-10-14T07:28:14.695Z,96891
2017-10-14T07:33:42.843Z,96891
2017-10-14T07:39:10.968Z,96896
2017-10-14T07:44:39.118Z,96897
2017-10-14T07:50:07.280Z,96893
2017-10-14T07:55:35.419Z,96893
2017-10-14T08:01:04.319Z,96902
2017-10-14T08:06:32.457Z,96896
2017-10-14T08:12:01.440Z,96894
2017-10-14T08:17:30.120Z,96889
2017-10-14T08:22:58.341Z,96888
2017-10-14T08:28:26.488Z,96882
2017-10-14T08:33:54.694Z,96877
2017-10-14T08:39:22.869Z,96877
2017-10-14T08:44:51.186Z,96875
2017-10-14T08:50:20.105Z,96881
2017-10-14T08:55:48.233Z,96883
2017-10-14T09:01:17.140Z,96881
2017-10-14T09:06:47.259Z,96874
2017-10-14T09:12:15.497Z,96890
2017-10-14T09:17:43.634Z,96883
2017-10-14T09:23:11.813Z,96883
2017-10-14T09:28:39.994Z,96877
2017-10-14T09:34:08.179Z,96875
2017-10-14T09:39:36.352Z,96872
2017-10-14T09:45:05.486Z,96883
2017-10-14T09:50:33.617Z,96884
2017-10-14T09:56:01.744Z,96871
2017-10-14T10:01:30.695Z,96866
2017-10-14T10:06:58.849Z,96866
2017-10-14T10:12:26.998Z,96871
2017-10-14T10:17:55.151Z,96866
2017-10-14T10:23:23.323Z,96868
2017-10-14T10:28:53.729Z,96871
2017-10-14T10:34:21.919Z,96864
2017-10-14T10:39:50.075Z,96868
2017-10-14T10:45:19.065Z,96864
2017-10-14T10:50:48.241Z,96858
2017-10-14T10:56:17.275Z,96860
2017-10-14T11:01:45.426Z,96861
2017-10-14T11:07:13.749Z,96846
2017-10-14T11:12:42.668Z,96851
2017-10-14T11:18:10.847Z,96843
2017-10-14T11:23:39.008Z,96839
2017-10-14T11:29:07.187Z,96835
2017-10-14T11:34:36.105Z,96832
2017-10-14T11:40:04.230Z,96824
2017-10-14T11:45:32.387Z,96816
2017-10-14T11:51:01.306Z,96819
2017-10-14T11:56:29.476Z,96811
2017-10-14T12:01:57.637Z,96812
2017-10-14T12:07:25.805Z,96810
2017-10-14T12:12:55.768Z,96808
2017-10-14T12:18:23.926Z,96802
2017-10-14T12:23:52.148Z,96796
2017-10-14T12:29:20.404Z,96793
2017-10-14T12:34:49.315Z,96794
2017-10-14T12:40:17.443Z,96797
2017-10-14T12:45:46.338Z,96792
2017-10-14T12:51:14.503Z,96799
2017-10-14T12:56:42.651Z,96798
2017-10-14T13:02:12.621Z,96797
2017-10-14T13:07:40.968Z,96793
2017-10-14T13:13:09.229Z,96801
2017-10-14T13:18:37.384Z,96798
2017-10-14T13:24:05.522Z,96799
2017-10-14T13:29:33.673Z,96786
2017-10-14T13:35:01.874Z,96787
2017-10-14T13:40:30.022Z,96792
2017-10-14T13:45:58.930Z,96784
2017-10-14T13:51:27.724Z,96773
2017-10-14T13:56:55.916Z,96763
2017-10-14T14:02:24.165Z,96770
2017-10-14T14:07:52.420Z,96728
2017-10-14T14:13:20.570Z,96714
2017-10-14T14:18:49.477Z,96736
2017-10-14T14:24:17.686Z,96751
2017-10-14T14:29:45.838Z,96754
2017-10-14T14:35:14.194Z,96770
2017-10-14T14:40:42.942Z,96763
2017-10-14T14:46:11.891Z,96786
2017-10-14T14:51:40.057Z,96769
2017-10-14T14:57:08.197Z,96733
2017-10-14T15:02:36.372Z,96733
2017-10-14T15:08:04.507Z,96732
2017-10-14T15:13:32.651Z,96785
2017-10-14T15:19:01.025Z,96794
2017-10-14T15:24:29.342Z,96786
2017-10-14T15:29:57.690Z,96780
2017-10-14T15:35:25.972Z,96778
2017-10-14T15:40:55.088Z,96776
2017-10-14T15:46:23.380Z,96776
2017-10-14T15:51:54.049Z,96772
2017-10-14T15:57:22.357Z,96774
2017-10-14T16:02:51.798Z,96774
2017-10-14T16:08:20.120Z,96776
2017-10-14T16:13:48.237Z,96771
2017-10-14T16:19:17.323Z,96765
2017-10-14T16:24:45.475Z,96772
2017-10-14T16:30:13.626Z,96782
2017-10-14T16:35:41.813Z,96783
2017-10-14T16:41:09.974Z,96788
2017-10-14T16:46:38.166Z,96783
2017-10-14T16:52:06.344Z,96788
2017-10-14T16:57:34.480Z,96793
2017-10-14T17:03:03.436Z,96784
2017-10-14T17:08:31.722Z,96795
2017-10-14T17:14:00.031Z,96796
2017-10-14T17:19:28.190Z,96807
2017-10-14T17:24:56.375Z,96801
2017-10-14T17:30:24.883Z,96819
2017-10-14T17:35:53.045Z,96814
2017-10-14T17:41:21.252Z,96815
2017-10-14T17:46:53.894Z,96810
2017-10-14T17:52:22.072Z,96810
2017-10-14T17:57:51.259Z,96815
2017-10-14T18:03:20.354Z,96806
2017-10-14T18:08:49.302Z,96818
2017-10-14T18:14:17.454Z,96807
2017-10-14T18:19:48.571Z,96808
2017-10-14T18:25:16.715Z,96806
2017-10-14T18:30:44.905Z,96807
2017-10-14T18:36:13.078Z,96799
2017-10-14T18:41:42.264Z,96811
2017-10-14T18:47:11.402Z,96820
2017-10-14T18:52:39.546Z,96815
2017-10-14T18:58:07.688Z,96830
2017-10-14T19:03:36.607Z,96839
2017-10-14T19:09:04.936Z,96841
2017-10-14T19:14:33.182Z,96847
2017-10-14T19:20:01.329Z,96849
2017-10-14T19:25:30.272Z,96846
2017-10-14T19:30:58.430Z,96832
2017-10-14T19:36:26.630Z,96843
2017-10-14T19:41:54.822Z,96830
2017-10-14T19:47:23.004Z,96833
2017-10-14T19:52:51.214Z,96826
2017-10-14T19:58:19.378Z,96830
2017-10-14T20:03:47.554Z,96819
2017-10-14T20:09:15.696Z,96832
2017-10-14T20:14:43.906Z,96822
2017-10-14T20:20:12.095Z,96833
2017-10-14T20:25:40.252Z,96830
2017-10-14T20:31:09.171Z,96834
2017-10-14T20:36:37.521Z,96834
2017-10-14T20:42:05.830Z,96833
2017-10-14T20:47:34.927Z,96821
2017-10-14T20:53:03.082Z,96825
2017-10-14T20:58:31.994Z,96825
2017-10-14T21:04:00.169Z,96820
2017-10-14T21:09:28.350Z,96823
2017-10-14T21:14:56.523Z,96813
2017-10-14T21:20:25.455Z,96810
2017-10-14T21:25:53.632Z,96808
2017-10-14T21:31:21.778Z,96812
2017-10-14T21:36:49.948Z,96816
2017-10-14T21:42:18.112Z,96816
2017-10-14T21:47:46.281Z,96808
2017-10-14T21:53:14.428Z,96794
2017-10-14T21:58:42.588Z,96812
2017-10-14T22:04:10.734Z,96804
2017-10-14T22:09:39.672Z,96811
2017-10-14T22:15:08.580Z,96799
2017-10-14T22:20:36.706Z,96810
2017-10-14T22:26:04.868Z,96814
2017-10-14T22:31:33.024Z,96815
2017-10-14T22:37:02.012Z,96808
2017-10-14T22:42:30.161Z,96817
2017-10-14T22:47:58.357Z,96808
2017-10-14T22:53:26.515Z,96815
2017-10-14T22:58:54.711Z,96811
2017-10-14T23:04:22.900Z,96813
2017-10-14T23:09:51.062Z,96814
2017-10-14T23:15:19.179Z,96811
2017-10-14T23:20:47.332Z,96808
2017-10-14T23:26:15.477Z,96803
2017-10-14T23:31:43.637Z,96804
2017-10-14T23:37:11.762Z,96803
2017-10-14T23:42:39.899Z,96804
2017-10-14T23:48:08.042Z,96809
2017-10-14T23:53:36.944Z,96812
2017-10-14T23:59:05.132Z,96810
